createdAt,value
2018-12-15T00:02:03.528Z,64.39
2018-12-15T00:04:29.577Z,64.75
2018-12-15T00:06:55.587Z,64.31
2018-12-15T00:09:21.549Z,63.96
2018-12-15T00:11:54.661Z,64.18
2018-12-15T00:14:20.619Z,63.65
2018-12-15T00:16:46.663Z,63.95
2018-12-15T00:19:12.684Z,63.57
2018-12-15T00:21:38.901Z,63.57
2018-12-15T00:24:04.887Z,63.74
2018-12-15T00:26:30.915Z,64.22
2018-12-15T00:28:57.173Z,63.29
2018-12-15T00:31:23.151Z,64.14
2018-12-15T00:33:49.152Z,65.87
2018-12-15T00:36:15.114Z,64.80
2018-12-15T00:38:41.168Z,64.79
2018-12-15T00:41:07.125Z,64.89
2018-12-15T00:43:33.094Z,64.52
2018-12-15T00:45:59.096Z,64.56
2018-12-15T00:48:25.040Z,64.75
2018-12-15T00:50:51.045Z,64.81
2018-12-15T00:53:17.462Z,65.56
2018-12-15T00:55:43.460Z,65.27
2018-12-15T00:58:09.511Z,64.05
2018-12-15T01:00:35.626Z,63.95
2018-12-15T01:03:01.681Z,64.70
2018-12-15T01:05:27.685Z,65.79
2018-12-15T01:07:53.695Z,64.72
2018-12-15T01:10:19.741Z,65.54
2018-12-15T01:12:45.753Z,66.15
2018-12-15T01:15:11.725Z,65.34
2018-12-15T01:17:37.688Z,66.32
2018-12-15T01:20:04.375Z,65.39
2018-12-15T01:22:30.507Z,65.39
2018-12-15T01:24:56.538Z,66.68
2018-12-15T01:27:22.552Z,65.70
2018-12-15T01:29:49.243Z,66.21
2018-12-15T01:32:15.230Z,67.42
2018-12-15T01:34:41.237Z,67.41
2018-12-15T01:37:07.202Z,66.93
2018-12-15T01:39:33.205Z,65.98
2018-12-15T01:41:59.177Z,67.27
2018-12-15T01:44:25.226Z,66.72
2018-12-15T01:46:51.288Z,65.72
2018-12-15T01:49:17.273Z,65.60
2018-12-15T01:51:43.273Z,66.94
2018-12-15T01:54:09.249Z,66.77
2018-12-15T01:56:35.231Z,66.56
2018-12-15T01:59:01.261Z,65.65
2018-12-15T02:01:27.203Z,64.91
2018-12-15T02:03:53.165Z,66.67
2018-12-15T02:06:19.292Z,67.51
2018-12-15T02:08:45.261Z,67.38
2018-12-15T02:11:11.276Z,66.71
2018-12-15T02:13:37.262Z,66.38
2018-12-15T02:16:03.209Z,65.79
2018-12-15T02:18:29.211Z,65.04
2018-12-15T02:20:55.263Z,64.78
2018-12-15T02:23:21.208Z,65.99
2018-12-15T02:25:47.220Z,67.36
2018-12-15T02:28:13.310Z,66.77
2018-12-15T02:30:39.308Z,67.67
2018-12-15T02:33:05.312Z,67.75
2018-12-15T02:35:31.543Z,67.88
2018-12-15T02:37:57.563Z,68.14
2018-12-15T02:40:23.548Z,67.56
2018-12-15T02:42:49.662Z,67.96
2018-12-15T02:45:15.651Z,68.13
2018-12-15T02:47:42.123Z,66.92
2018-12-15T02:50:08.257Z,67.51
2018-12-15T02:52:34.218Z,68.10
2018-12-15T02:55:00.204Z,67.54
2018-12-15T02:57:26.304Z,67.65
2018-12-15T02:59:52.300Z,67.67
2018-12-15T03:02:18.281Z,66.91
2018-12-15T03:04:44.278Z,67.85
2018-12-15T03:07:10.244Z,67.22
2018-12-15T03:09:36.350Z,67.69
2018-12-15T03:12:02.307Z,67.48
2018-12-15T03:14:28.299Z,68.77
2018-12-15T03:17:02.502Z,68.28
2018-12-15T03:19:28.536Z,68.24
2018-12-15T03:21:54.488Z,68.04
2018-12-15T03:24:20.505Z,67.43
2018-12-15T03:26:51.284Z,67.73
2018-12-15T03:29:17.501Z,68.01
2018-12-15T03:31:43.490Z,68.38
2018-12-15T03:34:09.433Z,68.87
2018-12-15T03:36:35.452Z,68.38
2018-12-15T03:39:01.460Z,68.06
2018-12-15T03:41:27.435Z,67.02
2018-12-15T03:43:53.560Z,67.04
2018-12-15T03:46:19.510Z,68.53
2018-12-15T03:48:45.496Z,68.65
2018-12-15T03:51:11.448Z,68.29
2018-12-15T03:53:37.444Z,67.99
2018-12-15T03:56:03.928Z,68.14
2018-12-15T03:58:30.029Z,67.04
2018-12-15T04:00:55.994Z,66.06
2018-12-15T04:03:22.001Z,65.58
2018-12-15T04:05:47.960Z,66.24
2018-12-15T04:08:13.965Z,65.20
2018-12-15T04:10:39.968Z,66.26
2018-12-15T04:13:05.982Z,65.62
2018-12-15T04:15:31.967Z,66.14
2018-12-15T04:18:03.724Z,66.13
2018-12-15T04:20:25.969Z,64.97
2018-12-15T04:22:51.949Z,64.36
2018-12-15T04:25:17.958Z,63.12
2018-12-15T04:27:44.045Z,64.38
2018-12-15T04:30:10.037Z,63.18
2018-12-15T04:32:36.020Z,63.22
2018-12-15T04:35:02.159Z,63.56
2018-12-15T04:37:28.117Z,62.77
2018-12-15T04:39:54.108Z,63.27
2018-12-15T04:42:20.057Z,64.16
2018-12-15T04:44:46.038Z,63.24
2018-12-15T04:47:12.520Z,63.41
2018-12-15T04:49:38.585Z,63.11
2018-12-15T04:52:11.634Z,63.32
2018-12-15T04:54:37.615Z,63.48
2018-12-15T04:57:03.673Z,64.09
2018-12-15T04:59:30.377Z,65.08
2018-12-15T05:01:56.463Z,64.63
2018-12-15T05:04:22.445Z,64.32
2018-12-15T05:06:48.449Z,64.41
2018-12-15T05:09:14.421Z,63.49
2018-12-15T05:11:40.509Z,63.17
2018-12-15T05:14:06.481Z,63.77
2018-12-15T05:16:32.490Z,63.47
2018-12-15T05:18:58.485Z,62.97
2018-12-15T05:21:24.550Z,63.47
2018-12-15T05:23:50.520Z,64.11
2018-12-15T05:26:16.492Z,63.27
2018-12-15T05:28:43.049Z,64.32
2018-12-15T05:31:09.415Z,64.05
2018-12-15T05:33:35.729Z,64.28
2018-12-15T05:36:02.073Z,63.28
2018-12-15T05:38:28.136Z,63.92
2018-12-15T05:40:54.160Z,62.93
2018-12-15T05:43:20.795Z,62.35
2018-12-15T05:45:46.786Z,62.41
2018-12-15T05:48:12.762Z,62.83
2018-12-15T05:50:38.755Z,62.26
2018-12-15T05:53:04.721Z,62.50
2018-12-15T05:55:30.732Z,62.59
2018-12-15T05:57:56.767Z,62.31
2018-12-15T06:00:22.894Z,62.09
2018-12-15T06:02:48.981Z,61.92
2018-12-15T06:05:15.132Z,62.22
2018-12-15T06:07:41.145Z,61.96
2018-12-15T06:10:07.144Z,62.07
2018-12-15T06:12:33.129Z,61.63
2018-12-15T06:14:59.122Z,62.15
2018-12-15T06:17:25.139Z,61.71
2018-12-15T06:19:58.094Z,61.79
2018-12-15T06:22:24.086Z,61.76
2018-12-15T06:24:50.059Z,61.79
2018-12-15T06:27:16.084Z,61.85
2018-12-15T06:29:42.046Z,60.97
2018-12-15T06:32:08.048Z,61.35
2018-12-15T06:34:41.076Z,61.25
2018-12-15T06:37:07.068Z,61.62
2018-12-15T06:39:33.028Z,61.62
2018-12-15T06:41:58.988Z,60.40
2018-12-15T06:44:25.000Z,60.29
2018-12-15T06:46:50.978Z,59.46
2018-12-15T06:49:16.973Z,59.88
2018-12-15T06:51:42.932Z,60.14
2018-12-15T06:54:08.922Z,60.26
2018-12-15T06:56:34.876Z,59.79
2018-12-15T06:59:00.944Z,60.34
2018-12-15T07:01:27.376Z,60.16
2018-12-15T07:03:53.354Z,59.79
2018-12-15T07:06:19.360Z,59.77
2018-12-15T07:08:45.433Z,59.78
2018-12-15T07:11:11.702Z,59.80
2018-12-15T07:13:37.687Z,59.73
2018-12-15T07:16:03.685Z,60.01
2018-12-15T07:18:29.727Z,60.15
2018-12-15T07:21:02.724Z,59.45
2018-12-15T07:23:28.875Z,59.84
2018-12-15T07:25:55.179Z,59.15
2018-12-15T07:28:21.348Z,59.39
2018-12-15T07:30:47.366Z,59.06
2018-12-15T07:33:13.327Z,58.68
2018-12-15T07:35:39.342Z,58.73
2018-12-15T07:38:05.328Z,58.59
2018-12-15T07:40:31.397Z,58.91
2018-12-15T07:42:57.352Z,59.00
2018-12-15T07:45:23.323Z,58.57
2018-12-15T07:47:49.303Z,58.37
2018-12-15T07:50:15.307Z,58.66
2018-12-15T07:52:44.609Z,58.75
2018-12-15T07:55:10.803Z,58.24
2018-12-15T07:57:36.787Z,58.39
2018-12-15T08:00:05.178Z,59.52
2018-12-15T08:02:31.131Z,60.91
2018-12-15T08:04:57.158Z,59.85
2018-12-15T08:07:23.147Z,59.17
2018-12-15T08:09:50.336Z,59.09
2018-12-15T08:12:22.392Z,58.60
2018-12-15T08:14:48.404Z,59.13
2018-12-15T08:17:14.362Z,58.40
2018-12-15T08:19:40.410Z,58.48
2018-12-15T08:22:06.384Z,58.11
2018-12-15T08:24:32.419Z,57.20
2018-12-15T08:26:58.497Z,57.02
2018-12-15T08:29:24.480Z,58.91
2018-12-15T08:31:50.472Z,58.29
2018-12-15T08:34:16.478Z,58.13
2018-12-15T08:36:42.479Z,59.03
2018-12-15T08:39:08.459Z,60.02
2018-12-15T08:41:34.464Z,59.21
2018-12-15T08:44:00.629Z,58.12
2018-12-15T08:46:26.638Z,58.32
2018-12-15T08:48:52.624Z,57.84
2018-12-15T08:51:18.754Z,57.80
2018-12-15T08:53:44.756Z,56.76
2018-12-15T08:56:10.820Z,58.30
2018-12-15T08:58:36.890Z,57.02
2018-12-15T09:01:02.960Z,57.39
2018-12-15T09:03:28.912Z,57.36
2018-12-15T09:05:54.902Z,57.04
2018-12-15T09:08:20.880Z,57.66
2018-12-15T09:10:46.886Z,58.02
2018-12-15T09:13:12.980Z,58.87
2018-12-15T09:15:38.986Z,58.39
2018-12-15T09:18:05.073Z,58.64
2018-12-15T09:20:31.154Z,57.77
2018-12-15T09:22:57.154Z,59.39
2018-12-15T09:25:23.113Z,58.33
2018-12-15T09:27:49.139Z,58.58
2018-12-15T09:30:15.101Z,57.93
2018-12-15T09:32:41.129Z,57.64
2018-12-15T09:35:07.106Z,58.33
2018-12-15T09:37:33.089Z,57.90
2018-12-15T09:39:59.058Z,57.96
2018-12-15T09:42:25.051Z,58.75
2018-12-15T09:44:51.054Z,57.99
2018-12-15T09:47:17.009Z,58.12
2018-12-15T09:49:43.018Z,58.64
2018-12-15T09:52:08.991Z,58.28
2018-12-15T09:54:34.974Z,58.69
2018-12-15T09:57:01.056Z,58.63
2018-12-15T09:59:27.120Z,59.18
2018-12-15T10:01:53.130Z,59.17
2018-12-15T10:04:19.118Z,58.85
2018-12-15T10:06:45.082Z,58.66
2018-12-15T10:09:11.083Z,59.06
2018-12-15T10:11:37.059Z,58.79
2018-12-15T10:14:03.055Z,58.94
2018-12-15T10:16:29.019Z,59.34
2018-12-15T10:18:55.039Z,58.39
2018-12-15T10:21:21.049Z,58.36
2018-12-15T10:23:47.091Z,58.36
2018-12-15T10:26:13.079Z,58.88
2018-12-15T10:28:39.049Z,58.86
2018-12-15T10:31:11.127Z,58.93
2018-12-15T10:33:37.179Z,58.14
2018-12-15T10:36:03.182Z,58.38
2018-12-15T10:38:29.144Z,59.30
2018-12-15T10:40:55.164Z,59.13
2018-12-15T10:43:21.696Z,58.97
2018-12-15T10:45:47.770Z,59.17
2018-12-15T10:48:13.721Z,59.15
2018-12-15T10:50:39.722Z,59.24
2018-12-15T10:53:05.695Z,58.85
2018-12-15T10:55:31.708Z,59.09
2018-12-15T10:57:57.730Z,58.92
2018-12-15T11:00:25.776Z,59.02
2018-12-15T11:02:51.796Z,59.12
2018-12-15T11:05:17.878Z,59.57
2018-12-15T11:07:43.843Z,58.87
2018-12-15T11:10:09.824Z,58.76
2018-12-15T11:12:35.789Z,58.83
2018-12-15T11:15:01.803Z,58.85
2018-12-15T11:17:27.868Z,58.97
2018-12-15T11:19:53.820Z,57.84
2018-12-15T11:22:20.305Z,58.59
2018-12-15T11:24:46.273Z,58.11
2018-12-15T11:27:12.393Z,57.93
2018-12-15T11:29:38.423Z,58.10
2018-12-15T11:32:04.421Z,58.54
2018-12-15T11:34:31.422Z,57.60
2018-12-15T11:36:57.488Z,57.45
2018-12-15T11:39:23.547Z,57.03
2018-12-15T11:41:49.522Z,57.76
2018-12-15T11:44:15.534Z,57.36
2018-12-15T11:46:41.540Z,57.21
2018-12-15T11:49:07.516Z,56.87
2018-12-15T11:51:33.542Z,57.33
2018-12-15T11:53:59.518Z,56.15
2018-12-15T11:56:25.524Z,56.60
2018-12-15T11:58:51.581Z,56.63
2018-12-15T12:01:17.656Z,56.69
2018-12-15T12:03:43.659Z,56.18
2018-12-15T12:06:09.704Z,56.78
2018-12-15T12:08:35.694Z,57.49
2018-12-15T12:11:01.674Z,58.30
2018-12-15T12:13:27.707Z,57.51
2018-12-15T12:15:53.659Z,57.78
2018-12-15T12:18:19.641Z,57.38
2018-12-15T12:20:45.637Z,57.73
2018-12-15T12:23:11.586Z,57.43
2018-12-15T12:25:37.571Z,57.01
2018-12-15T12:28:03.530Z,56.40
2018-12-15T12:30:29.545Z,56.77
2018-12-15T12:32:55.548Z,56.00
2018-12-15T12:35:21.505Z,56.25
2018-12-15T12:37:47.499Z,55.95
2018-12-15T12:40:13.483Z,56.77
2018-12-15T12:42:39.543Z,57.20
2018-12-15T12:45:05.587Z,55.82
2018-12-15T12:47:31.627Z,56.71
2018-12-15T12:49:57.611Z,56.52
2018-12-15T12:52:23.583Z,56.63
2018-12-15T12:54:49.607Z,56.48
2018-12-15T12:57:15.684Z,57.35
2018-12-15T12:59:41.644Z,56.55
2018-12-15T13:02:07.707Z,56.27
2018-12-15T13:04:33.802Z,55.95
2018-12-15T13:06:59.789Z,55.97
2018-12-15T13:09:26.400Z,55.47
2018-12-15T13:11:52.428Z,54.66
2018-12-15T13:14:18.958Z,55.63
2018-12-15T13:16:44.973Z,55.22
2018-12-15T13:19:10.936Z,55.18
2018-12-15T13:21:36.969Z,55.07
2018-12-15T13:24:03.092Z,54.36
2018-12-15T13:26:29.110Z,55.08
2018-12-15T13:28:55.161Z,53.79
2018-12-15T13:31:21.141Z,53.56
2018-12-15T13:33:47.152Z,53.35
2018-12-15T13:36:13.779Z,53.19
2018-12-15T13:38:39.914Z,52.68
2018-12-15T13:41:06.567Z,53.23
2018-12-15T13:43:32.639Z,54.09
2018-12-15T13:46:05.837Z,54.62
2018-12-15T13:48:31.863Z,54.19
2018-12-15T13:50:57.841Z,53.99
2018-12-15T13:53:23.924Z,53.32
2018-12-15T13:55:49.885Z,52.72
2018-12-15T13:58:15.983Z,53.75
2018-12-15T14:00:41.948Z,53.25
2018-12-15T14:03:07.981Z,52.50
2018-12-15T14:05:36.422Z,51.50
2018-12-15T14:08:02.501Z,50.79
2018-12-15T14:10:28.523Z,51.55
2018-12-15T14:12:54.619Z,50.41
2018-12-15T14:15:20.577Z,51.23
2018-12-15T14:17:46.580Z,51.65
2018-12-15T14:20:16.690Z,51.90
2018-12-15T14:22:40.716Z,51.53
2018-12-15T14:25:06.687Z,52.25
2018-12-15T14:27:32.765Z,52.21
2018-12-15T14:29:58.723Z,51.39
2018-12-15T14:32:24.747Z,51.90
2018-12-15T14:34:50.708Z,51.48
2018-12-15T14:37:16.717Z,52.23
2018-12-15T14:39:42.679Z,52.10
2018-12-15T14:42:08.671Z,51.63
2018-12-15T14:44:34.755Z,52.52
2018-12-15T14:47:00.700Z,51.99
2018-12-15T14:49:26.812Z,53.01
2018-12-15T14:51:52.780Z,54.27
2018-12-15T14:54:18.786Z,55.80
2018-12-15T14:56:44.799Z,56.01
2018-12-15T14:59:10.823Z,56.92
2018-12-15T15:01:36.792Z,57.77
2018-12-15T15:04:02.816Z,58.62
2018-12-15T15:06:28.802Z,59.13
2018-12-15T15:08:54.814Z,58.92
2018-12-15T15:11:20.760Z,59.70
2018-12-15T15:13:46.838Z,60.91
2018-12-15T15:16:12.796Z,60.28
2018-12-15T15:18:38.864Z,62.18
2018-12-15T15:21:04.866Z,62.06
2018-12-15T15:23:30.867Z,61.53
2018-12-15T15:25:56.814Z,60.58
2018-12-15T15:28:22.848Z,61.58
2018-12-15T15:30:48.805Z,60.20
2018-12-15T15:33:14.816Z,60.27
2018-12-15T15:35:40.780Z,60.54
2018-12-15T15:38:06.759Z,61.25
2018-12-15T15:40:32.759Z,60.81
2018-12-15T15:42:58.733Z,60.75
2018-12-15T15:45:24.758Z,60.42
2018-12-15T15:47:50.718Z,60.56
2018-12-15T15:50:16.701Z,59.75
2018-12-15T15:52:42.655Z,59.56
2018-12-15T15:55:08.681Z,59.42
2018-12-15T15:57:34.627Z,58.74
2018-12-15T16:00:00.899Z,59.37
2018-12-15T16:02:26.873Z,58.85
2018-12-15T16:04:52.921Z,59.94
2018-12-15T16:07:18.935Z,59.68
2018-12-15T16:09:45.200Z,59.56
2018-12-15T16:12:11.317Z,58.72
2018-12-15T16:14:37.305Z,58.85
2018-12-15T16:17:03.311Z,58.67
2018-12-15T16:19:29.271Z,58.84
2018-12-15T16:21:55.353Z,59.38
2018-12-15T16:24:28.241Z,59.79
2018-12-15T16:26:54.324Z,59.85
2018-12-15T16:29:20.308Z,59.54
2018-12-15T16:31:46.278Z,59.75
2018-12-15T16:34:12.272Z,59.53
2018-12-15T16:36:38.275Z,59.72
2018-12-15T16:39:05.556Z,59.68
2018-12-15T16:41:31.578Z,60.35
2018-12-15T16:43:57.560Z,60.68
2018-12-15T16:46:23.570Z,60.09
2018-12-15T16:48:49.558Z,60.13
2018-12-15T16:51:15.589Z,60.24
2018-12-15T16:53:41.553Z,60.54
2018-12-15T16:56:14.591Z,60.39
2018-12-15T16:58:40.649Z,60.36
2018-12-15T17:01:06.800Z,60.52
2018-12-15T17:03:32.793Z,59.82
2018-12-15T17:05:58.752Z,60.34
2018-12-15T17:08:24.744Z,59.55
2018-12-15T17:10:50.755Z,59.97
2018-12-15T17:13:16.809Z,60.12
2018-12-15T17:15:42.817Z,61.34
2018-12-15T17:18:08.815Z,61.18
2018-12-15T17:20:34.815Z,61.22
2018-12-15T17:23:00.893Z,60.67
2018-12-15T17:25:26.925Z,60.84
2018-12-15T17:27:52.905Z,61.13
2018-12-15T17:30:18.907Z,61.04
2018-12-15T17:32:44.960Z,60.08
2018-12-15T17:35:10.985Z,60.02
2018-12-15T17:37:36.967Z,60.37
2018-12-15T17:40:05.093Z,59.79
2018-12-15T17:42:31.115Z,60.50
2018-12-15T17:44:57.172Z,60.48
2018-12-15T17:47:23.184Z,61.00
2018-12-15T17:49:49.144Z,61.14
2018-12-15T17:52:15.379Z,60.79
2018-12-15T17:54:41.392Z,61.23
2018-12-15T17:57:08.079Z,61.90
2018-12-15T17:59:34.112Z,61.72
2018-12-15T18:02:00.292Z,61.32
2018-12-15T18:04:26.278Z,60.31
2018-12-15T18:06:52.277Z,61.38
2018-12-15T18:09:18.233Z,61.06
2018-12-15T18:11:44.232Z,60.58
2018-12-15T18:14:10.328Z,61.06
2018-12-15T18:16:36.306Z,60.79
2018-12-15T18:19:02.290Z,60.75
2018-12-15T18:21:28.289Z,61.54
2018-12-15T18:23:54.280Z,60.59
2018-12-15T18:26:20.376Z,60.20
2018-12-15T18:28:46.357Z,60.87
2018-12-15T18:31:12.367Z,60.51
2018-12-15T18:33:38.341Z,60.52
2018-12-15T18:36:04.369Z,59.34
2018-12-15T18:38:30.850Z,59.80
2018-12-15T18:40:56.843Z,59.57
2018-12-15T18:43:22.893Z,59.59
2018-12-15T18:45:49.129Z,59.45
2018-12-15T18:48:15.152Z,58.86
2018-12-15T18:50:48.075Z,59.02
2018-12-15T18:53:14.125Z,58.24
2018-12-15T18:55:40.106Z,58.10
2018-12-15T18:58:08.223Z,58.00
2018-12-15T19:00:34.189Z,58.23
2018-12-15T19:03:00.192Z,58.11
2018-12-15T19:05:26.184Z,57.28
2018-12-15T19:07:52.334Z,58.12
2018-12-15T19:10:18.310Z,56.77
2018-12-15T19:12:44.326Z,57.32
2018-12-15T19:15:10.418Z,58.30
2018-12-15T19:17:36.484Z,57.73
2018-12-15T19:20:03.104Z,57.79
2018-12-15T19:22:29.174Z,57.28
2018-12-15T19:24:59.242Z,58.28
2018-12-15T19:27:25.493Z,58.63
2018-12-15T19:29:51.690Z,58.48
2018-12-15T19:32:17.690Z,58.73
2018-12-15T19:34:43.670Z,59.51
2018-12-15T19:37:09.780Z,58.98
2018-12-15T19:39:35.796Z,58.83
2018-12-15T19:42:01.768Z,58.38
2018-12-15T19:44:27.794Z,58.83
2018-12-15T19:46:53.804Z,58.88
2018-12-15T19:49:19.796Z,58.08
2018-12-15T19:51:45.797Z,58.88
2018-12-15T19:54:11.929Z,57.95
2018-12-15T19:56:37.921Z,59.45
2018-12-15T19:59:03.895Z,59.12
2018-12-15T20:01:29.914Z,58.64
2018-12-15T20:03:55.945Z,58.73
2018-12-15T20:06:21.950Z,59.12
2018-12-15T20:08:49.051Z,58.74
2018-12-15T20:11:15.073Z,59.03
2018-12-15T20:13:41.075Z,58.95
2018-12-15T20:16:07.093Z,58.67
2018-12-15T20:18:34.812Z,58.51
2018-12-15T20:21:00.822Z,58.47
2018-12-15T20:23:26.835Z,58.63
2018-12-15T20:25:52.927Z,58.73
2018-12-15T20:28:18.937Z,58.96
2018-12-15T20:30:44.912Z,58.87
2018-12-15T20:33:10.931Z,59.63
2018-12-15T20:35:36.894Z,58.37
2018-12-15T20:38:03.004Z,58.98
2018-12-15T20:40:28.989Z,57.67
2018-12-15T20:42:55.022Z,57.67
2018-12-15T20:45:21.038Z,58.08
2018-12-15T20:47:47.111Z,57.38
2018-12-15T20:50:13.079Z,57.91
2018-12-15T20:52:39.087Z,58.12
2018-12-15T20:55:05.413Z,58.00
2018-12-15T20:57:31.535Z,59.13
2018-12-15T20:59:57.626Z,59.02
2018-12-15T21:02:23.712Z,59.19
2018-12-15T21:04:49.690Z,58.61
2018-12-15T21:07:15.646Z,58.73
2018-12-15T21:09:41.801Z,58.91
2018-12-15T21:12:07.953Z,58.43
2018-12-15T21:14:40.989Z,59.00
2018-12-15T21:17:07.100Z,59.37
2018-12-15T21:19:33.125Z,58.78
2018-12-15T21:21:59.133Z,58.71
2018-12-15T21:24:32.053Z,59.11
2018-12-15T21:26:58.023Z,59.59
2018-12-15T21:29:24.054Z,59.26
2018-12-15T21:31:56.434Z,59.14
2018-12-15T21:34:18.133Z,59.41
2018-12-15T21:36:44.151Z,59.38
2018-12-15T21:39:10.118Z,60.14
2018-12-15T21:41:36.132Z,59.12
2018-12-15T21:44:02.111Z,59.33
2018-12-15T21:46:28.117Z,59.94
2018-12-15T21:48:54.094Z,59.81
2018-12-15T21:51:20.075Z,59.61
2018-12-15T21:53:46.071Z,60.11
2018-12-15T21:56:12.136Z,59.84
2018-12-15T21:58:38.166Z,60.12
2018-12-15T22:01:11.035Z,60.45
2018-12-15T22:03:37.044Z,59.81
2018-12-15T22:06:03.042Z,59.83
2018-12-15T22:08:29.015Z,60.45
2018-12-15T22:10:54.964Z,60.23
2018-12-15T22:13:21.776Z,61.24
2018-12-15T22:15:47.855Z,60.32
2018-12-15T22:18:13.863Z,60.21
2018-12-15T22:20:40.164Z,60.64
2018-12-15T22:23:06.221Z,61.04
2018-12-15T22:25:32.164Z,61.46
2018-12-15T22:27:58.172Z,60.84
2018-12-15T22:30:24.130Z,61.84
2018-12-15T22:32:50.163Z,61.32
2018-12-15T22:35:16.188Z,62.47
2018-12-15T22:37:42.166Z,62.68
2018-12-15T22:40:08.201Z,62.80
2018-12-15T22:42:34.201Z,62.72
2018-12-15T22:45:00.144Z,63.20
2018-12-15T22:47:26.808Z,62.80
2018-12-15T22:49:52.776Z,63.95
2018-12-15T22:52:18.761Z,63.77
2018-12-15T22:54:44.738Z,64.39
2018-12-15T22:57:10.935Z,64.36
2018-12-15T22:59:37.023Z,64.03
2018-12-15T23:02:03.024Z,63.39
2018-12-15T23:04:29.086Z,63.78
2018-12-15T23:06:55.073Z,64.25
2018-12-15T23:09:21.065Z,63.56
2018-12-15T23:11:47.023Z,64.69
2018-12-15T23:14:13.047Z,64.49
2018-12-15T23:16:39.026Z,64.64
2018-12-15T23:19:05.209Z,64.76
2018-12-15T23:21:31.365Z,64.81
2018-12-15T23:23:57.373Z,63.76
2018-12-15T23:26:23.359Z,64.42
2018-12-15T23:28:49.311Z,63.81
2018-12-15T23:31:15.383Z,64.75
2018-12-15T23:33:41.369Z,63.28
2018-12-15T23:36:07.373Z,63.26
2018-12-15T23:38:33.449Z,62.89
2018-12-15T23:40:59.449Z,62.82
2018-12-15T23:43:25.417Z,63.14
2018-12-15T23:45:51.414Z,63.11
2018-12-15T23:48:17.941Z,62.73
2018-12-15T23:50:43.945Z,62.79
2018-12-15T23:53:09.953Z,63.05
2018-12-15T23:55:35.991Z,62.92
2018-12-15T23:58:01.980Z,62.65
